sensor_id;sensor_type;location;lat;lon;timestamp;P1;durP1;ratioP1;P2;durP2;ratioP2
41466;SDS011;27205;53.690;19.948;2022-08-19T00:04:33;8.30;;;7.50;;
41466;SDS011;27205;53.690;19.948;2022-08-19T00:09:39;10.00;;;8.50;;
41466;SDS011;27205;53.690;19.948;2022-08-19T00:14:42;7.30;;;6.70;;
41466;SDS011;27205;53.690;19.948;2022-08-19T00:19:45;9.20;;;7.40;;
41466;SDS011;27205;53.690;19.948;2022-08-19T00:29:52;8.00;;;7.20;;
41466;SDS011;27205;53.690;19.948;2022-08-19T00:34:56;8.60;;;6.70;;
41466;SDS011;27205;53.690;19.948;2022-08-19T00:45:09;7.10;;;6.40;;
41466;SDS011;27205;53.690;19.948;2022-08-19T00:50:15;9.00;;;7.60;;
41466;SDS011;27205;53.690;19.948;2022-08-19T00:55:22;7.80;;;7.10;;
41466;SDS011;27205;53.690;19.948;2022-08-19T01:00:28;7.70;;;6.90;;
41466;SDS011;27205;53.690;19.948;2022-08-19T01:05:33;7.90;;;7.30;;
41466;SDS011;27205;53.690;19.948;2022-08-19T01:10:39;7.90;;;7.00;;
41466;SDS011;27205;53.690;19.948;2022-08-19T01:15:47;7.70;;;6.90;;
41466;SDS011;27205;53.690;19.948;2022-08-19T01:20:56;9.50;;;8.10;;
41466;SDS011;27205;53.690;19.948;2022-08-19T01:26:04;9.20;;;8.40;;
41466;SDS011;27205;53.690;19.948;2022-08-19T01:31:11;7.60;;;6.90;;
41466;SDS011;27205;53.690;19.948;2022-08-19T01:36:33;8.60;;;7.70;;
41466;SDS011;27205;53.690;19.948;2022-08-19T01:41:39;6.90;;;6.30;;
41466;SDS011;27205;53.690;19.948;2022-08-19T01:46:43;7.10;;;6.50;;
41466;SDS011;27205;53.690;19.948;2022-08-19T01:51:47;8.20;;;7.50;;
41466;SDS011;27205;53.690;19.948;2022-08-19T01:56:52;7.30;;;6.70;;
41466;SDS011;27205;53.690;19.948;2022-08-19T02:02:01;7.90;;;7.30;;
41466;SDS011;27205;53.690;19.948;2022-08-19T02:07:07;8.20;;;7.60;;
41466;SDS011;27205;53.690;19.948;2022-08-19T02:12:10;7.40;;;6.80;;
41466;SDS011;27205;53.690;19.948;2022-08-19T02:17:14;7.30;;;6.80;;
41466;SDS011;27205;53.690;19.948;2022-08-19T02:22:17;7.30;;;6.80;;
41466;SDS011;27205;53.690;19.948;2022-08-19T02:27:21;8.00;;;7.30;;
41466;SDS011;27205;53.690;19.948;2022-08-19T02:32:25;7.90;;;7.30;;
41466;SDS011;27205;53.690;19.948;2022-08-19T02:37:28;9.20;;;7.90;;
41466;SDS011;27205;53.690;19.948;2022-08-19T02:42:51;7.50;;;6.90;;
41466;SDS011;27205;53.690;19.948;2022-08-19T02:47:54;7.80;;;7.20;;
41466;SDS011;27205;53.690;19.948;2022-08-19T02:52:59;7.90;;;7.20;;
41466;SDS011;27205;53.690;19.948;2022-08-19T03:03:09;7.70;;;7.10;;
41466;SDS011;27205;53.690;19.948;2022-08-19T03:08:13;7.50;;;6.80;;
41466;SDS011;27205;53.690;19.948;2022-08-19T03:13:17;7.10;;;6.40;;
41466;SDS011;27205;53.690;19.948;2022-08-19T03:18:21;8.20;;;7.40;;
41466;SDS011;27205;53.690;19.948;2022-08-19T03:23:24;6.70;;;6.20;;
41466;SDS011;27205;53.690;19.948;2022-08-19T03:28:28;7.60;;;7.10;;
41466;SDS011;27205;53.690;19.948;2022-08-19T03:38:36;8.20;;;7.40;;
41466;SDS011;27205;53.690;19.948;2022-08-19T03:43:46;7.80;;;7.20;;
41466;SDS011;27205;53.690;19.948;2022-08-19T03:48:51;8.10;;;7.40;;
41466;SDS011;27205;53.690;19.948;2022-08-19T03:53:57;7.30;;;6.60;;
41466;SDS011;27205;53.690;19.948;2022-08-19T03:59:02;7.90;;;7.20;;
41466;SDS011;27205;53.690;19.948;2022-08-19T04:04:07;7.40;;;6.90;;
41466;SDS011;27205;53.690;19.948;2022-08-19T04:09:11;8.10;;;7.40;;
41466;SDS011;27205;53.690;19.948;2022-08-19T04:14:16;9.10;;;8.30;;
41466;SDS011;27205;53.690;19.948;2022-08-19T04:19:22;8.10;;;7.40;;
41466;SDS011;27205;53.690;19.948;2022-08-19T04:24:27;9.20;;;8.40;;
41466;SDS011;27205;53.690;19.948;2022-08-19T04:29:31;7.90;;;6.50;;
41466;SDS011;27205;53.690;19.948;2022-08-19T04:34:36;7.00;;;6.30;;
41466;SDS011;27205;53.690;19.948;2022-08-19T04:40:00;6.40;;;5.70;;
41466;SDS011;27205;53.690;19.948;2022-08-19T04:45:22;7.50;;;6.60;;
41466;SDS011;27205;53.690;19.948;2022-08-19T04:50:26;8.50;;;6.90;;
41466;SDS011;27205;53.690;19.948;2022-08-19T04:55:29;9.80;;;6.90;;
41466;SDS011;27205;53.690;19.948;2022-08-19T05:00:39;7.30;;;6.40;;
41466;SDS011;27205;53.690;19.948;2022-08-19T05:05:46;6.30;;;5.90;;
41466;SDS011;27205;53.690;19.948;2022-08-19T05:10:51;7.20;;;6.30;;
41466;SDS011;27205;53.690;19.948;2022-08-19T05:15:56;5.60;;;5.20;;
41466;SDS011;27205;53.690;19.948;2022-08-19T05:21:04;8.50;;;6.40;;
41466;SDS011;27205;53.690;19.948;2022-08-19T05:26:28;6.00;;;5.50;;
41466;SDS011;27205;53.690;19.948;2022-08-19T05:31:32;6.30;;;5.60;;
41466;SDS011;27205;53.690;19.948;2022-08-19T05:36:39;9.30;;;6.50;;
41466;SDS011;27205;53.690;19.948;2022-08-19T05:41:47;6.80;;;6.10;;
41466;SDS011;27205;53.690;19.948;2022-08-19T05:46:53;8.90;;;6.40;;
41466;SDS011;27205;53.690;19.948;2022-08-19T05:51:56;6.80;;;6.20;;
41466;SDS011;27205;53.690;19.948;2022-08-19T05:57:00;10.30;;;6.00;;
41466;SDS011;27205;53.690;19.948;2022-08-19T06:02:04;6.70;;;5.70;;
41466;SDS011;27205;53.690;19.948;2022-08-19T06:07:09;5.90;;;5.40;;
41466;SDS011;27205;53.690;19.948;2022-08-19T06:12:14;5.90;;;5.30;;
41466;SDS011;27205;53.690;19.948;2022-08-19T06:17:20;8.30;;;5.70;;
41466;SDS011;27205;53.690;19.948;2022-08-19T06:22:25;6.00;;;5.40;;
41466;SDS011;27205;53.690;19.948;2022-08-19T06:27:29;11.50;;;6.00;;
41466;SDS011;27205;53.690;19.948;2022-08-19T06:32:34;6.50;;;6.00;;
41466;SDS011;27205;53.690;19.948;2022-08-19T06:37:44;6.10;;;5.40;;
41466;SDS011;27205;53.690;19.948;2022-08-19T06:42:48;6.10;;;5.50;;
41466;SDS011;27205;53.690;19.948;2022-08-19T06:47:56;7.20;;;5.50;;
41466;SDS011;27205;53.690;19.948;2022-08-19T06:53:00;11.60;;;5.10;;
41466;SDS011;27205;53.690;19.948;2022-08-19T06:58:06;6.60;;;5.70;;
41466;SDS011;27205;53.690;19.948;2022-08-19T07:03:09;8.50;;;5.70;;
41466;SDS011;27205;53.690;19.948;2022-08-19T07:08:14;7.60;;;5.80;;
41466;SDS011;27205;53.690;19.948;2022-08-19T07:13:20;5.70;;;4.80;;
41466;SDS011;27205;53.690;19.948;2022-08-19T07:18:24;7.10;;;5.40;;
41466;SDS011;27205;53.690;19.948;2022-08-19T07:23:28;6.90;;;4.90;;
41466;SDS011;27205;53.690;19.948;2022-08-19T07:28:32;8.40;;;4.90;;
41466;SDS011;27205;53.690;19.948;2022-08-19T07:33:36;7.80;;;4.90;;
41466;SDS011;27205;53.690;19.948;2022-08-19T07:38:42;4.90;;;4.30;;
41466;SDS011;27205;53.690;19.948;2022-08-19T07:43:47;5.00;;;4.20;;
41466;SDS011;27205;53.690;19.948;2022-08-19T07:48:51;7.10;;;4.90;;
41466;SDS011;27205;53.690;19.948;2022-08-19T07:53:55;6.90;;;5.00;;
41466;SDS011;27205;53.690;19.948;2022-08-19T07:58:59;6.40;;;5.10;;
41466;SDS011;27205;53.690;19.948;2022-08-19T08:04:04;4.30;;;3.90;;
41466;SDS011;27205;53.690;19.948;2022-08-19T08:14:33;5.20;;;3.90;;
41466;SDS011;27205;53.690;19.948;2022-08-19T08:19:45;6.10;;;3.80;;
41466;SDS011;27205;53.690;19.948;2022-08-19T08:24:53;6.80;;;4.10;;
41466;SDS011;27205;53.690;19.948;2022-08-19T08:29:57;6.00;;;4.70;;
41466;SDS011;27205;53.690;19.948;2022-08-19T08:35:05;7.00;;;4.20;;
41466;SDS011;27205;53.690;19.948;2022-08-19T08:45:29;19.40;;;6.30;;
41466;SDS011;27205;53.690;19.948;2022-08-19T08:50:44;17.50;;;6.20;;
41466;SDS011;27205;53.690;19.948;2022-08-19T08:55:51;6.40;;;4.70;;
41466;SDS011;27205;53.690;19.948;2022-08-19T09:00:54;6.80;;;4.30;;
41466;SDS011;27205;53.690;19.948;2022-08-19T09:11:16;21.50;;;6.80;;
41466;SDS011;27205;53.690;19.948;2022-08-19T09:16:46;14.20;;;5.00;;
41466;SDS011;27205;53.690;19.948;2022-08-19T09:21:51;8.90;;;4.20;;
41466;SDS011;27205;53.690;19.948;2022-08-19T09:26:54;8.80;;;4.10;;
41466;SDS011;27205;53.690;19.948;2022-08-19T09:31:58;9.30;;;4.20;;
41466;SDS011;27205;53.690;19.948;2022-08-19T09:37:02;9.30;;;3.80;;
41466;SDS011;27205;53.690;19.948;2022-08-19T09:42:09;9.30;;;4.20;;
41466;SDS011;27205;53.690;19.948;2022-08-19T09:52:24;12.70;;;4.20;;
41466;SDS011;27205;53.690;19.948;2022-08-19T09:57:34;7.60;;;4.00;;
41466;SDS011;27205;53.690;19.948;2022-08-19T10:02:38;8.40;;;4.20;;
41466;SDS011;27205;53.690;19.948;2022-08-19T10:07:41;9.80;;;4.40;;
41466;SDS011;27205;53.690;19.948;2022-08-19T10:12:44;7.90;;;3.80;;
41466;SDS011;27205;53.690;19.948;2022-08-19T10:17:50;6.40;;;3.80;;
41466;SDS011;27205;53.690;19.948;2022-08-19T10:22:57;4.40;;;3.50;;
41466;SDS011;27205;53.690;19.948;2022-08-19T10:28:03;6.00;;;3.70;;
41466;SDS011;27205;53.690;19.948;2022-08-19T10:33:12;7.90;;;3.70;;
41466;SDS011;27205;53.690;19.948;2022-08-19T10:38:16;6.40;;;3.50;;
41466;SDS011;27205;53.690;19.948;2022-08-19T10:43:19;12.00;;;4.50;;
41466;SDS011;27205;53.690;19.948;2022-08-19T10:48:22;7.50;;;3.80;;
41466;SDS011;27205;53.690;19.948;2022-08-19T10:53:26;5.90;;;3.70;;
41466;SDS011;27205;53.690;19.948;2022-08-19T10:58:30;9.80;;;4.40;;
41466;SDS011;27205;53.690;19.948;2022-08-19T11:03:33;8.30;;;4.10;;
41466;SDS011;27205;53.690;19.948;2022-08-19T11:08:36;36.80;;;9.40;;
41466;SDS011;27205;53.690;19.948;2022-08-19T11:13:40;8.60;;;4.30;;
41466;SDS011;27205;53.690;19.948;2022-08-19T11:18:46;10.60;;;4.40;;
41466;SDS011;27205;53.690;19.948;2022-08-19T11:23:52;6.40;;;3.40;;
41466;SDS011;27205;53.690;19.948;2022-08-19T11:28:58;7.60;;;3.90;;
41466;SDS011;27205;53.690;19.948;2022-08-19T11:34:03;15.10;;;4.30;;
41466;SDS011;27205;53.690;19.948;2022-08-19T11:39:09;12.80;;;3.90;;
41466;SDS011;27205;53.690;19.948;2022-08-19T11:44:14;7.90;;;3.70;;
41466;SDS011;27205;53.690;19.948;2022-08-19T11:49:18;11.20;;;3.90;;
41466;SDS011;27205;53.690;19.948;2022-08-19T11:54:22;7.50;;;3.40;;
41466;SDS011;27205;53.690;19.948;2022-08-19T11:59:25;20.50;;;6.10;;
41466;SDS011;27205;53.690;19.948;2022-08-19T12:04:31;10.00;;;4.00;;
41466;SDS011;27205;53.690;19.948;2022-08-19T12:09:34;9.30;;;3.80;;
41466;SDS011;27205;53.690;19.948;2022-08-19T12:14:43;10.40;;;3.70;;
41466;SDS011;27205;53.690;19.948;2022-08-19T12:19:49;8.60;;;4.10;;
41466;SDS011;27205;53.690;19.948;2022-08-19T12:24:52;8.10;;;3.80;;
41466;SDS011;27205;53.690;19.948;2022-08-19T12:29:56;5.60;;;3.00;;
41466;SDS011;27205;53.690;19.948;2022-08-19T12:35:00;7.20;;;3.80;;
41466;SDS011;27205;53.690;19.948;2022-08-19T12:40:04;6.00;;;3.70;;
41466;SDS011;27205;53.690;19.948;2022-08-19T12:45:08;5.80;;;3.40;;
41466;SDS011;27205;53.690;19.948;2022-08-19T12:50:13;8.00;;;3.30;;
41466;SDS011;27205;53.690;19.948;2022-08-19T12:55:16;9.10;;;3.90;;
41466;SDS011;27205;53.690;19.948;2022-08-19T13:00:21;5.80;;;2.60;;
41466;SDS011;27205;53.690;19.948;2022-08-19T13:05:26;10.50;;;4.20;;
41466;SDS011;27205;53.690;19.948;2022-08-19T13:10:33;6.00;;;3.50;;
41466;SDS011;27205;53.690;19.948;2022-08-19T13:15:39;6.80;;;3.50;;
41466;SDS011;27205;53.690;19.948;2022-08-19T13:20:44;5.50;;;2.90;;
41466;SDS011;27205;53.690;19.948;2022-08-19T13:25:58;8.10;;;3.70;;
41466;SDS011;27205;53.690;19.948;2022-08-19T13:31:02;7.20;;;3.00;;
41466;SDS011;27205;53.690;19.948;2022-08-19T13:36:35;7.10;;;2.80;;
41466;SDS011;27205;53.690;19.948;2022-08-19T13:41:42;9.00;;;3.80;;
41466;SDS011;27205;53.690;19.948;2022-08-19T13:46:50;4.20;;;2.60;;
41466;SDS011;27205;53.690;19.948;2022-08-19T13:51:56;7.10;;;3.10;;
41466;SDS011;27205;53.690;19.948;2022-08-19T13:56:59;7.20;;;3.00;;
41466;SDS011;27205;53.690;19.948;2022-08-19T14:02:02;25.10;;;7.30;;
41466;SDS011;27205;53.690;19.948;2022-08-19T14:07:07;8.40;;;3.10;;
41466;SDS011;27205;53.690;19.948;2022-08-19T14:12:12;10.60;;;3.60;;
41466;SDS011;27205;53.690;19.948;2022-08-19T14:17:15;12.30;;;3.90;;
41466;SDS011;27205;53.690;19.948;2022-08-19T14:22:18;6.00;;;2.80;;
41466;SDS011;27205;53.690;19.948;2022-08-19T14:27:24;4.40;;;2.60;;
41466;SDS011;27205;53.690;19.948;2022-08-19T14:32:30;5.10;;;2.70;;
41466;SDS011;27205;53.690;19.948;2022-08-19T14:37:33;8.50;;;2.90;;
41466;SDS011;27205;53.690;19.948;2022-08-19T14:42:47;4.40;;;2.30;;
41466;SDS011;27205;53.690;19.948;2022-08-19T14:47:51;6.90;;;2.50;;
41466;SDS011;27205;53.690;19.948;2022-08-19T14:52:59;5.10;;;2.10;;
41466;SDS011;27205;53.690;19.948;2022-08-19T14:58:14;2.90;;;2.30;;
41466;SDS011;27205;53.690;19.948;2022-08-19T15:03:31;5.00;;;2.50;;
41466;SDS011;27205;53.690;19.948;2022-08-19T15:08:35;3.40;;;2.20;;
41466;SDS011;27205;53.690;19.948;2022-08-19T15:13:42;3.90;;;2.80;;
41466;SDS011;27205;53.690;19.948;2022-08-19T15:18:48;6.70;;;2.90;;
41466;SDS011;27205;53.690;19.948;2022-08-19T15:23:53;5.10;;;3.10;;
41466;SDS011;27205;53.690;19.948;2022-08-19T15:28:59;4.40;;;3.40;;
41466;SDS011;27205;53.690;19.948;2022-08-19T15:34:03;6.40;;;4.00;;
41466;SDS011;27205;53.690;19.948;2022-08-19T15:39:08;14.90;;;6.60;;
41466;SDS011;27205;53.690;19.948;2022-08-19T15:44:14;4.30;;;3.10;;
41466;SDS011;27205;53.690;19.948;2022-08-19T15:49:20;4.30;;;3.10;;
41466;SDS011;27205;53.690;19.948;2022-08-19T15:54:24;7.00;;;3.40;;
41466;SDS011;27205;53.690;19.948;2022-08-19T15:59:27;4.40;;;3.10;;
41466;SDS011;27205;53.690;19.948;2022-08-19T16:04:52;5.30;;;3.30;;
41466;SDS011;27205;53.690;19.948;2022-08-19T16:10:14;3.50;;;3.20;;
41466;SDS011;27205;53.690;19.948;2022-08-19T16:15:29;3.90;;;3.30;;
41466;SDS011;27205;53.690;19.948;2022-08-19T16:20:33;4.80;;;2.80;;
41466;SDS011;27205;53.690;19.948;2022-08-19T16:25:37;5.20;;;3.30;;
41466;SDS011;27205;53.690;19.948;2022-08-19T16:30:41;19.70;;;5.60;;
41466;SDS011;27205;53.690;19.948;2022-08-19T16:35:52;5.10;;;3.00;;
41466;SDS011;27205;53.690;19.948;2022-08-19T16:41:06;4.60;;;3.00;;
41466;SDS011;27205;53.690;19.948;2022-08-19T16:46:11;5.30;;;2.90;;
41466;SDS011;27205;53.690;19.948;2022-08-19T16:51:20;5.10;;;2.90;;
41466;SDS011;27205;53.690;19.948;2022-08-19T16:56:24;5.50;;;2.80;;
41466;SDS011;27205;53.690;19.948;2022-08-19T17:01:30;4.70;;;3.20;;
41466;SDS011;27205;53.690;19.948;2022-08-19T17:06:33;4.70;;;3.00;;
41466;SDS011;27205;53.690;19.948;2022-08-19T17:11:38;6.00;;;3.10;;
41466;SDS011;27205;53.690;19.948;2022-08-19T17:16:41;10.10;;;4.90;;
41466;SDS011;27205;53.690;19.948;2022-08-19T17:21:45;5.20;;;3.50;;
41466;SDS011;27205;53.690;19.948;2022-08-19T17:26:48;6.60;;;3.40;;
41466;SDS011;27205;53.690;19.948;2022-08-19T17:31:52;4.90;;;3.50;;
41466;SDS011;27205;53.690;19.948;2022-08-19T17:36:55;15.80;;;4.50;;
41466;SDS011;27205;53.690;19.948;2022-08-19T17:41:58;5.90;;;3.10;;
41466;SDS011;27205;53.690;19.948;2022-08-19T17:47:04;5.60;;;3.30;;
41466;SDS011;27205;53.690;19.948;2022-08-19T17:52:07;6.90;;;3.10;;
41466;SDS011;27205;53.690;19.948;2022-08-19T17:57:11;5.90;;;3.30;;
41466;SDS011;27205;53.690;19.948;2022-08-19T18:02:15;7.90;;;3.80;;
41466;SDS011;27205;53.690;19.948;2022-08-19T18:07:23;4.10;;;3.40;;
41466;SDS011;27205;53.690;19.948;2022-08-19T18:12:27;4.20;;;2.90;;
41466;SDS011;27205;53.690;19.948;2022-08-19T18:17:30;5.90;;;3.30;;
41466;SDS011;27205;53.690;19.948;2022-08-19T18:22:35;4.00;;;3.00;;
41466;SDS011;27205;53.690;19.948;2022-08-19T18:27:40;12.80;;;4.10;;
41466;SDS011;27205;53.690;19.948;2022-08-19T18:32:45;7.00;;;3.30;;
41466;SDS011;27205;53.690;19.948;2022-08-19T18:37:51;5.10;;;3.40;;
41466;SDS011;27205;53.690;19.948;2022-08-19T18:42:54;4.60;;;3.50;;
41466;SDS011;27205;53.690;19.948;2022-08-19T18:48:26;10.50;;;3.50;;
41466;SDS011;27205;53.690;19.948;2022-08-19T18:53:59;5.20;;;3.20;;
41466;SDS011;27205;53.690;19.948;2022-08-19T18:59:03;4.40;;;3.30;;
41466;SDS011;27205;53.690;19.948;2022-08-19T19:04:07;3.40;;;2.90;;
41466;SDS011;27205;53.690;19.948;2022-08-19T19:09:16;4.30;;;3.20;;
41466;SDS011;27205;53.690;19.948;2022-08-19T19:14:28;5.80;;;3.60;;
41466;SDS011;27205;53.690;19.948;2022-08-19T19:19:52;6.10;;;3.20;;
41466;SDS011;27205;53.690;19.948;2022-08-19T19:24:55;4.30;;;3.20;;
41466;SDS011;27205;53.690;19.948;2022-08-19T19:30:01;7.00;;;3.30;;
41466;SDS011;27205;53.690;19.948;2022-08-19T19:35:04;5.70;;;3.00;;
41466;SDS011;27205;53.690;19.948;2022-08-19T19:40:10;6.20;;;3.40;;
41466;SDS011;27205;53.690;19.948;2022-08-19T19:45:14;6.60;;;3.50;;
41466;SDS011;27205;53.690;19.948;2022-08-19T19:50:18;6.90;;;3.50;;
41466;SDS011;27205;53.690;19.948;2022-08-19T19:55:22;12.90;;;3.60;;
41466;SDS011;27205;53.690;19.948;2022-08-19T20:00:28;5.00;;;3.20;;
41466;SDS011;27205;53.690;19.948;2022-08-19T20:05:31;11.70;;;3.30;;
41466;SDS011;27205;53.690;19.948;2022-08-19T20:10:34;4.70;;;3.00;;
41466;SDS011;27205;53.690;19.948;2022-08-19T20:15:38;5.70;;;3.30;;
41466;SDS011;27205;53.690;19.948;2022-08-19T20:20:44;5.00;;;3.00;;
41466;SDS011;27205;53.690;19.948;2022-08-19T20:25:52;4.10;;;2.70;;
41466;SDS011;27205;53.690;19.948;2022-08-19T20:30:56;4.00;;;2.80;;
41466;SDS011;27205;53.690;19.948;2022-08-19T20:36:00;4.50;;;3.00;;
41466;SDS011;27205;53.690;19.948;2022-08-19T20:41:03;3.70;;;2.80;;
41466;SDS011;27205;53.690;19.948;2022-08-19T20:46:07;5.10;;;3.20;;
41466;SDS011;27205;53.690;19.948;2022-08-19T20:51:11;5.20;;;3.20;;
41466;SDS011;27205;53.690;19.948;2022-08-19T20:56:15;5.30;;;2.30;;
41466;SDS011;27205;53.690;19.948;2022-08-19T21:01:18;4.80;;;2.60;;
41466;SDS011;27205;53.690;19.948;2022-08-19T21:06:21;5.70;;;3.20;;
41466;SDS011;27205;53.690;19.948;2022-08-19T21:11:25;3.50;;;2.50;;
41466;SDS011;27205;53.690;19.948;2022-08-19T21:16:28;5.30;;;2.90;;
41466;SDS011;27205;53.690;19.948;2022-08-19T21:21:34;4.40;;;3.00;;
41466;SDS011;27205;53.690;19.948;2022-08-19T21:26:37;5.20;;;2.60;;
41466;SDS011;27205;53.690;19.948;2022-08-19T21:31:41;6.10;;;2.80;;
41466;SDS011;27205;53.690;19.948;2022-08-19T21:36:45;6.20;;;2.70;;
41466;SDS011;27205;53.690;19.948;2022-08-19T21:41:48;4.10;;;2.60;;
41466;SDS011;27205;53.690;19.948;2022-08-19T21:46:51;7.70;;;3.00;;
41466;SDS011;27205;53.690;19.948;2022-08-19T21:51:54;7.10;;;2.80;;
41466;SDS011;27205;53.690;19.948;2022-08-19T21:56:57;6.70;;;2.70;;
41466;SDS011;27205;53.690;19.948;2022-08-19T22:02:00;5.90;;;2.60;;
41466;SDS011;27205;53.690;19.948;2022-08-19T22:07:21;4.90;;;2.60;;
41466;SDS011;27205;53.690;19.948;2022-08-19T22:12:29;4.30;;;2.70;;
41466;SDS011;27205;53.690;19.948;2022-08-19T22:17:34;5.80;;;2.70;;
41466;SDS011;27205;53.690;19.948;2022-08-19T22:22:39;5.40;;;2.90;;
41466;SDS011;27205;53.690;19.948;2022-08-19T22:27:51;6.60;;;2.60;;
41466;SDS011;27205;53.690;19.948;2022-08-19T22:33:09;5.80;;;3.10;;
41466;SDS011;27205;53.690;19.948;2022-08-19T22:38:15;5.60;;;2.90;;
41466;SDS011;27205;53.690;19.948;2022-08-19T22:48:24;4.50;;;3.00;;
41466;SDS011;27205;53.690;19.948;2022-08-19T22:53:30;6.80;;;3.00;;
41466;SDS011;27205;53.690;19.948;2022-08-19T22:58:35;6.50;;;2.90;;
41466;SDS011;27205;53.690;19.948;2022-08-19T23:03:42;6.10;;;3.00;;
41466;SDS011;27205;53.690;19.948;2022-08-19T23:08:46;11.80;;;4.20;;
41466;SDS011;27205;53.690;19.948;2022-08-19T23:13:49;8.40;;;3.90;;
41466;SDS011;27205;53.690;19.948;2022-08-19T23:18:53;7.60;;;3.50;;
41466;SDS011;27205;53.690;19.948;2022-08-19T23:23:57;9.90;;;4.10;;
41466;SDS011;27205;53.690;19.948;2022-08-19T23:29:01;7.70;;;3.80;;
41466;SDS011;27205;53.690;19.948;2022-08-19T23:34:22;8.20;;;3.80;;
41466;SDS011;27205;53.690;19.948;2022-08-19T23:39:26;5.00;;;3.40;;
41466;SDS011;27205;53.690;19.948;2022-08-19T23:44:31;8.80;;;4.20;;
41466;SDS011;27205;53.690;19.948;2022-08-19T23:49:36;7.90;;;4.40;;
41466;SDS011;27205;53.690;19.948;2022-08-19T23:54:39;7.50;;;5.40;;
41466;SDS011;27205;53.690;19.948;2022-08-19T23:59:45;7.10;;;5.00;;
